sensor_id;sensor_type;location;lat;lon;timestamp;temperature;humidity
44517;DHT22;30223;17.182;-96.766;2023-04-09T00:01:13;30.20;52.80
44517;DHT22;30223;17.182;-96.766;2023-04-09T00:03:40;30.20;51.90
44517;DHT22;30223;17.182;-96.766;2023-04-09T00:06:06;30.10;51.50
44517;DHT22;30223;17.182;-96.766;2023-04-09T00:08:32;30.10;50.80
44517;DHT22;30223;17.182;-96.766;2023-04-09T00:10:58;30.10;50.80
44517;DHT22;30223;17.182;-96.766;2023-04-09T00:13:25;30.10;50.40
44517;DHT22;30223;17.182;-96.766;2023-04-09T00:15:51;30.00;50.70
44517;DHT22;30223;17.182;-96.766;2023-04-09T00:18:17;30.00;50.70
44517;DHT22;30223;17.182;-96.766;2023-04-09T00:20:43;30.00;50.70
44517;DHT22;30223;17.182;-96.766;2023-04-09T00:23:09;30.00;50.70
44517;DHT22;30223;17.182;-96.766;2023-04-09T00:25:36;30.00;51.00
44517;DHT22;30223;17.182;-96.766;2023-04-09T00:28:02;30.00;50.80
44517;DHT22;30223;17.182;-96.766;2023-04-09T00:30:28;30.00;50.70
44517;DHT22;30223;17.182;-96.766;2023-04-09T00:32:55;30.00;50.20
44517;DHT22;30223;17.182;-96.766;2023-04-09T00:35:21;30.00;50.80
44517;DHT22;30223;17.182;-96.766;2023-04-09T00:37:47;29.90;50.00
44517;DHT22;30223;17.182;-96.766;2023-04-09T00:40:14;29.90;49.90
44517;DHT22;30223;17.182;-96.766;2023-04-09T00:42:40;29.90;49.70
44517;DHT22;30223;17.182;-96.766;2023-04-09T00:45:06;29.80;49.20
44517;DHT22;30223;17.182;-96.766;2023-04-09T00:47:33;29.80;49.00
44517;DHT22;30223;17.182;-96.766;2023-04-09T00:50:00;29.70;48.90
44517;DHT22;30223;17.182;-96.766;2023-04-09T00:52:26;29.70;49.30
44517;DHT22;30223;17.182;-96.766;2023-04-09T00:54:55;29.60;49.30
44517;DHT22;30223;17.182;-96.766;2023-04-09T00:57:21;29.60;49.00
44517;DHT22;30223;17.182;-96.766;2023-04-09T00:59:47;29.50;48.90
44517;DHT22;30223;17.182;-96.766;2023-04-09T01:02:14;29.50;48.80
44517;DHT22;30223;17.182;-96.766;2023-04-09T01:04:40;29.50;48.90
44517;DHT22;30223;17.182;-96.766;2023-04-09T01:07:33;29.40;48.90
44517;DHT22;30223;17.182;-96.766;2023-04-09T01:10:16;29.40;48.60
44517;DHT22;30223;17.182;-96.766;2023-04-09T01:15:14;29.30;48.40
44517;DHT22;30223;17.182;-96.766;2023-04-09T01:17:44;29.30;48.40
44517;DHT22;30223;17.182;-96.766;2023-04-09T01:20:22;29.30;48.40
44517;DHT22;30223;17.182;-96.766;2023-04-09T01:23:00;29.20;47.90
44517;DHT22;30223;17.182;-96.766;2023-04-09T01:28:52;29.20;50.50
44517;DHT22;30223;17.182;-96.766;2023-04-09T01:31:16;29.30;49.20
44517;DHT22;30223;17.182;-96.766;2023-04-09T01:33:42;29.40;49.50
44517;DHT22;30223;17.182;-96.766;2023-04-09T01:36:09;29.40;49.20
44517;DHT22;30223;17.182;-96.766;2023-04-09T01:38:38;29.40;49.80
44517;DHT22;30223;17.182;-96.766;2023-04-09T01:41:09;29.40;48.90
44517;DHT22;30223;17.182;-96.766;2023-04-09T01:43:36;29.40;51.00
44517;DHT22;30223;17.182;-96.766;2023-04-09T01:46:03;29.50;49.80
44517;DHT22;30223;17.182;-96.766;2023-04-09T01:48:29;29.50;49.40
44517;DHT22;30223;17.182;-96.766;2023-04-09T01:50:59;29.50;49.20
44517;DHT22;30223;17.182;-96.766;2023-04-09T01:53:25;29.50;48.90
44517;DHT22;30223;17.182;-96.766;2023-04-09T01:55:53;29.50;48.80
44517;DHT22;30223;17.182;-96.766;2023-04-09T01:58:21;29.50;48.30
44517;DHT22;30223;17.182;-96.766;2023-04-09T02:00:47;29.50;48.70
44517;DHT22;30223;17.182;-96.766;2023-04-09T02:03:16;29.40;48.50
44517;DHT22;30223;17.182;-96.766;2023-04-09T02:05:49;29.40;48.30
44517;DHT22;30223;17.182;-96.766;2023-04-09T02:08:18;29.40;49.30
44517;DHT22;30223;17.182;-96.766;2023-04-09T02:10:47;29.40;48.10
44517;DHT22;30223;17.182;-96.766;2023-04-09T02:13:18;29.30;48.20
44517;DHT22;30223;17.182;-96.766;2023-04-09T02:15:44;29.20;46.90
44517;DHT22;30223;17.182;-96.766;2023-04-09T02:18:24;29.20;46.80
44517;DHT22;30223;17.182;-96.766;2023-04-09T02:20:52;29.10;46.40
44517;DHT22;30223;17.182;-96.766;2023-04-09T02:23:19;29.10;46.60
44517;DHT22;30223;17.182;-96.766;2023-04-09T02:25:45;29.00;47.00
44517;DHT22;30223;17.182;-96.766;2023-04-09T02:28:11;29.00;47.20
44517;DHT22;30223;17.182;-96.766;2023-04-09T02:30:37;29.00;47.50
44517;DHT22;30223;17.182;-96.766;2023-04-09T02:33:04;28.90;47.80
44517;DHT22;30223;17.182;-96.766;2023-04-09T02:35:30;28.90;47.10
44517;DHT22;30223;17.182;-96.766;2023-04-09T02:37:56;28.90;47.30
44517;DHT22;30223;17.182;-96.766;2023-04-09T02:40:22;28.90;47.80
44517;DHT22;30223;17.182;-96.766;2023-04-09T02:42:49;28.90;47.20
44517;DHT22;30223;17.182;-96.766;2023-04-09T02:45:15;28.80;47.00
44517;DHT22;30223;17.182;-96.766;2023-04-09T02:47:41;28.80;47.20
44517;DHT22;30223;17.182;-96.766;2023-04-09T02:50:07;28.70;47.40
44517;DHT22;30223;17.182;-96.766;2023-04-09T02:52:33;28.70;47.30
44517;DHT22;30223;17.182;-96.766;2023-04-09T02:54:59;28.70;47.30
44517;DHT22;30223;17.182;-96.766;2023-04-09T02:57:26;28.70;47.50
44517;DHT22;30223;17.182;-96.766;2023-04-09T02:59:52;28.70;47.60
44517;DHT22;30223;17.182;-96.766;2023-04-09T03:02:18;28.70;47.70
44517;DHT22;30223;17.182;-96.766;2023-04-09T03:04:44;28.70;48.00
44517;DHT22;30223;17.182;-96.766;2023-04-09T03:07:10;28.70;47.90
44517;DHT22;30223;17.182;-96.766;2023-04-09T03:09:36;28.60;47.80
44517;DHT22;30223;17.182;-96.766;2023-04-09T03:12:03;28.60;47.90
44517;DHT22;30223;17.182;-96.766;2023-04-09T03:14:29;28.60;48.00
44517;DHT22;30223;17.182;-96.766;2023-04-09T03:16:55;28.60;47.80
44517;DHT22;30223;17.182;-96.766;2023-04-09T03:19:21;28.60;48.00
44517;DHT22;30223;17.182;-96.766;2023-04-09T03:21:47;28.60;48.00
44517;DHT22;30223;17.182;-96.766;2023-04-09T03:24:15;28.50;48.00
44517;DHT22;30223;17.182;-96.766;2023-04-09T03:26:42;28.50;47.90
44517;DHT22;30223;17.182;-96.766;2023-04-09T03:29:08;28.50;47.90
44517;DHT22;30223;17.182;-96.766;2023-04-09T03:31:34;28.50;47.90
44517;DHT22;30223;17.182;-96.766;2023-04-09T03:34:00;28.50;47.90
44517;DHT22;30223;17.182;-96.766;2023-04-09T03:36:27;28.50;48.60
44517;DHT22;30223;17.182;-96.766;2023-04-09T03:38:53;28.50;48.00
44517;DHT22;30223;17.182;-96.766;2023-04-09T03:41:19;28.40;48.00
44517;DHT22;30223;17.182;-96.766;2023-04-09T03:43:45;28.40;48.00
44517;DHT22;30223;17.182;-96.766;2023-04-09T03:46:12;28.40;48.00
44517;DHT22;30223;17.182;-96.766;2023-04-09T03:48:38;28.40;48.00
44517;DHT22;30223;17.182;-96.766;2023-04-09T03:51:04;28.40;48.00
44517;DHT22;30223;17.182;-96.766;2023-04-09T03:53:30;28.40;48.00
44517;DHT22;30223;17.182;-96.766;2023-04-09T03:55:57;28.40;47.90
44517;DHT22;30223;17.182;-96.766;2023-04-09T03:58:23;28.30;47.80
44517;DHT22;30223;17.182;-96.766;2023-04-09T04:00:49;28.30;47.90
44517;DHT22;30223;17.182;-96.766;2023-04-09T04:03:15;28.30;47.80
44517;DHT22;30223;17.182;-96.766;2023-04-09T04:05:41;28.30;47.80
44517;DHT22;30223;17.182;-96.766;2023-04-09T04:08:08;28.30;47.90
44517;DHT22;30223;17.182;-96.766;2023-04-09T04:10:34;28.30;47.90
44517;DHT22;30223;17.182;-96.766;2023-04-09T04:13:00;28.20;47.80
44517;DHT22;30223;17.182;-96.766;2023-04-09T04:15:27;28.20;47.80
44517;DHT22;30223;17.182;-96.766;2023-04-09T04:17:53;28.20;47.90
44517;DHT22;30223;17.182;-96.766;2023-04-09T04:20:19;28.20;47.80
44517;DHT22;30223;17.182;-96.766;2023-04-09T04:22:46;28.20;47.80
44517;DHT22;30223;17.182;-96.766;2023-04-09T04:25:12;28.20;47.90
44517;DHT22;30223;17.182;-96.766;2023-04-09T04:27:41;28.10;47.80
44517;DHT22;30223;17.182;-96.766;2023-04-09T04:30:07;28.20;48.00
44517;DHT22;30223;17.182;-96.766;2023-04-09T04:32:33;28.10;47.80
44517;DHT22;30223;17.182;-96.766;2023-04-09T04:35:00;28.10;47.80
44517;DHT22;30223;17.182;-96.766;2023-04-09T04:37:26;28.10;47.80
44517;DHT22;30223;17.182;-96.766;2023-04-09T04:39:52;28.10;47.80
44517;DHT22;30223;17.182;-96.766;2023-04-09T04:42:18;28.10;47.80
44517;DHT22;30223;17.182;-96.766;2023-04-09T04:44:44;28.10;47.80
44517;DHT22;30223;17.182;-96.766;2023-04-09T04:47:11;28.00;47.80
44517;DHT22;30223;17.182;-96.766;2023-04-09T04:49:37;28.10;47.80
44517;DHT22;30223;17.182;-96.766;2023-04-09T04:52:03;28.00;47.80
44517;DHT22;30223;17.182;-96.766;2023-04-09T04:54:29;28.00;47.80
44517;DHT22;30223;17.182;-96.766;2023-04-09T04:56:56;28.00;47.80
44517;DHT22;30223;17.182;-96.766;2023-04-09T04:59:22;28.00;47.80
44517;DHT22;30223;17.182;-96.766;2023-04-09T05:01:48;28.00;47.80
44517;DHT22;30223;17.182;-96.766;2023-04-09T05:04:14;28.00;47.80
44517;DHT22;30223;17.182;-96.766;2023-04-09T05:06:40;28.00;47.80
44517;DHT22;30223;17.182;-96.766;2023-04-09T05:09:07;28.00;47.80
44517;DHT22;30223;17.182;-96.766;2023-04-09T05:11:33;27.90;47.70
44517;DHT22;30223;17.182;-96.766;2023-04-09T05:13:59;27.90;47.70
44517;DHT22;30223;17.182;-96.766;2023-04-09T05:16:25;27.90;47.70
44517;DHT22;30223;17.182;-96.766;2023-04-09T05:18:51;27.90;47.70
44517;DHT22;30223;17.182;-96.766;2023-04-09T05:21:17;27.90;47.70
44517;DHT22;30223;17.182;-96.766;2023-04-09T05:23:44;27.90;47.70
44517;DHT22;30223;17.182;-96.766;2023-04-09T05:26:10;27.80;47.70
44517;DHT22;30223;17.182;-96.766;2023-04-09T05:28:36;27.90;47.80
44517;DHT22;30223;17.182;-96.766;2023-04-09T05:31:02;27.80;47.70
44517;DHT22;30223;17.182;-96.766;2023-04-09T05:33:29;27.80;47.80
44517;DHT22;30223;17.182;-96.766;2023-04-09T05:35:55;27.80;47.70
44517;DHT22;30223;17.182;-96.766;2023-04-09T05:38:21;27.80;47.80
44517;DHT22;30223;17.182;-96.766;2023-04-09T05:40:48;27.70;47.70
44517;DHT22;30223;17.182;-96.766;2023-04-09T05:43:14;27.70;47.70
44517;DHT22;30223;17.182;-96.766;2023-04-09T05:45:40;27.70;47.70
44517;DHT22;30223;17.182;-96.766;2023-04-09T05:48:06;27.70;47.70
44517;DHT22;30223;17.182;-96.766;2023-04-09T05:50:32;27.70;47.70
44517;DHT22;30223;17.182;-96.766;2023-04-09T05:52:59;27.70;47.70
44517;DHT22;30223;17.182;-96.766;2023-04-09T05:55:25;27.60;47.70
44517;DHT22;30223;17.182;-96.766;2023-04-09T05:57:51;27.60;47.60
44517;DHT22;30223;17.182;-96.766;2023-04-09T06:00:18;27.60;47.70
44517;DHT22;30223;17.182;-96.766;2023-04-09T06:02:44;27.60;47.70
44517;DHT22;30223;17.182;-96.766;2023-04-09T06:05:10;27.60;47.70
44517;DHT22;30223;17.182;-96.766;2023-04-09T06:07:37;27.60;47.70
44517;DHT22;30223;17.182;-96.766;2023-04-09T06:10:03;27.60;47.70
44517;DHT22;30223;17.182;-96.766;2023-04-09T06:12:29;27.60;47.70
44517;DHT22;30223;17.182;-96.766;2023-04-09T06:14:56;27.50;47.60
44517;DHT22;30223;17.182;-96.766;2023-04-09T06:17:22;27.60;47.70
44517;DHT22;30223;17.182;-96.766;2023-04-09T06:19:48;27.50;47.70
44517;DHT22;30223;17.182;-96.766;2023-04-09T06:22:14;27.50;47.70
44517;DHT22;30223;17.182;-96.766;2023-04-09T06:24:40;27.40;47.60
44517;DHT22;30223;17.182;-96.766;2023-04-09T06:27:07;27.50;47.70
44517;DHT22;30223;17.182;-96.766;2023-04-09T06:29:33;27.40;47.60
44517;DHT22;30223;17.182;-96.766;2023-04-09T06:31:59;27.40;47.60
44517;DHT22;30223;17.182;-96.766;2023-04-09T06:34:26;27.40;47.60
44517;DHT22;30223;17.182;-96.766;2023-04-09T06:36:56;27.40;47.60
44517;DHT22;30223;17.182;-96.766;2023-04-09T06:39:22;27.40;47.60
44517;DHT22;30223;17.182;-96.766;2023-04-09T06:41:49;27.40;47.60
44517;DHT22;30223;17.182;-96.766;2023-04-09T06:44:15;27.40;48.30
44517;DHT22;30223;17.182;-96.766;2023-04-09T06:46:41;27.40;48.50
44517;DHT22;30223;17.182;-96.766;2023-04-09T06:49:07;27.50;48.60
44517;DHT22;30223;17.182;-96.766;2023-04-09T06:51:33;27.60;48.90
44517;DHT22;30223;17.182;-96.766;2023-04-09T06:53:59;27.60;48.80
44517;DHT22;30223;17.182;-96.766;2023-04-09T06:56:26;27.60;48.90
44517;DHT22;30223;17.182;-96.766;2023-04-09T06:58:52;27.70;49.00
44517;DHT22;30223;17.182;-96.766;2023-04-09T07:01:18;27.80;48.40
44517;DHT22;30223;17.182;-96.766;2023-04-09T07:03:45;27.90;48.40
44517;DHT22;30223;17.182;-96.766;2023-04-09T07:06:11;27.90;48.20
44517;DHT22;30223;17.182;-96.766;2023-04-09T07:08:38;28.00;47.80
44517;DHT22;30223;17.182;-96.766;2023-04-09T07:11:04;28.00;47.90
44517;DHT22;30223;17.182;-96.766;2023-04-09T07:13:30;28.00;48.30
44517;DHT22;30223;17.182;-96.766;2023-04-09T07:15:57;28.00;47.80
44517;DHT22;30223;17.182;-96.766;2023-04-09T07:18:24;28.10;47.80
44517;DHT22;30223;17.182;-96.766;2023-04-09T07:20:51;28.10;47.70
44517;DHT22;30223;17.182;-96.766;2023-04-09T07:23:17;28.10;47.90
44517;DHT22;30223;17.182;-96.766;2023-04-09T07:25:44;28.10;47.70
44517;DHT22;30223;17.182;-96.766;2023-04-09T07:28:10;28.10;47.70
44517;DHT22;30223;17.182;-96.766;2023-04-09T07:30:37;28.10;47.40
44517;DHT22;30223;17.182;-96.766;2023-04-09T07:33:04;28.10;47.30
44517;DHT22;30223;17.182;-96.766;2023-04-09T07:35:30;28.10;47.60
44517;DHT22;30223;17.182;-96.766;2023-04-09T07:37:57;28.10;47.30
44517;DHT22;30223;17.182;-96.766;2023-04-09T07:40:24;28.10;47.50
44517;DHT22;30223;17.182;-96.766;2023-04-09T07:42:50;28.10;47.40
44517;DHT22;30223;17.182;-96.766;2023-04-09T07:45:22;28.10;47.40
44517;DHT22;30223;17.182;-96.766;2023-04-09T07:47:48;28.10;47.40
44517;DHT22;30223;17.182;-96.766;2023-04-09T07:50:15;28.10;47.20
44517;DHT22;30223;17.182;-96.766;2023-04-09T07:52:41;28.00;46.70
44517;DHT22;30223;17.182;-96.766;2023-04-09T07:55:07;28.00;46.80
44517;DHT22;30223;17.182;-96.766;2023-04-09T07:57:33;27.90;46.60
44517;DHT22;30223;17.182;-96.766;2023-04-09T08:00:00;27.90;46.70
44517;DHT22;30223;17.182;-96.766;2023-04-09T08:02:26;27.80;46.70
44517;DHT22;30223;17.182;-96.766;2023-04-09T08:04:52;27.70;46.60
44517;DHT22;30223;17.182;-96.766;2023-04-09T08:07:18;27.70;46.70
44517;DHT22;30223;17.182;-96.766;2023-04-09T08:09:44;27.60;46.70
44517;DHT22;30223;17.182;-96.766;2023-04-09T08:12:11;27.50;46.70
44517;DHT22;30223;17.182;-96.766;2023-04-09T08:14:37;27.40;46.80
44517;DHT22;30223;17.182;-96.766;2023-04-09T08:17:03;27.40;46.90
44517;DHT22;30223;17.182;-96.766;2023-04-09T08:19:29;27.30;46.80
44517;DHT22;30223;17.182;-96.766;2023-04-09T08:21:56;27.20;46.90
44517;DHT22;30223;17.182;-96.766;2023-04-09T08:24:23;27.20;46.90
44517;DHT22;30223;17.182;-96.766;2023-04-09T08:26:49;27.20;46.90
44517;DHT22;30223;17.182;-96.766;2023-04-09T08:29:15;27.10;47.00
44517;DHT22;30223;17.182;-96.766;2023-04-09T08:31:42;27.10;47.00
44517;DHT22;30223;17.182;-96.766;2023-04-09T08:34:08;27.00;47.00
44517;DHT22;30223;17.182;-96.766;2023-04-09T08:36:34;27.00;47.00
44517;DHT22;30223;17.182;-96.766;2023-04-09T08:39:01;27.00;47.10
44517;DHT22;30223;17.182;-96.766;2023-04-09T08:41:27;26.90;47.00
44517;DHT22;30223;17.182;-96.766;2023-04-09T08:43:54;26.90;47.10
44517;DHT22;30223;17.182;-96.766;2023-04-09T08:46:21;26.90;47.10
44517;DHT22;30223;17.182;-96.766;2023-04-09T08:48:48;26.90;47.10
44517;DHT22;30223;17.182;-96.766;2023-04-09T08:51:16;26.80;47.10
44517;DHT22;30223;17.182;-96.766;2023-04-09T08:53:48;26.80;47.10
44517;DHT22;30223;17.182;-96.766;2023-04-09T08:56:17;26.80;47.10
44517;DHT22;30223;17.182;-96.766;2023-04-09T08:58:44;26.70;47.10
44517;DHT22;30223;17.182;-96.766;2023-04-09T09:01:28;26.70;47.20
44517;DHT22;30223;17.182;-96.766;2023-04-09T09:06:22;26.70;47.20
44517;DHT22;30223;17.182;-96.766;2023-04-09T09:09:01;26.60;47.20
44517;DHT22;30223;17.182;-96.766;2023-04-09T09:11:28;26.60;47.20
44517;DHT22;30223;17.182;-96.766;2023-04-09T09:14:07;26.60;47.20
44517;DHT22;30223;17.182;-96.766;2023-04-09T09:16:34;26.50;47.20
44517;DHT22;30223;17.182;-96.766;2023-04-09T09:19:04;26.50;47.20
44517;DHT22;30223;17.182;-96.766;2023-04-09T09:21:31;26.50;47.80
44517;DHT22;30223;17.182;-96.766;2023-04-09T09:23:57;26.50;47.20
44517;DHT22;30223;17.182;-96.766;2023-04-09T09:26:24;26.50;47.20
44517;DHT22;30223;17.182;-96.766;2023-04-09T09:28:51;26.50;47.30
44517;DHT22;30223;17.182;-96.766;2023-04-09T09:31:19;26.40;47.30
44517;DHT22;30223;17.182;-96.766;2023-04-09T09:33:48;26.40;47.30
44517;DHT22;30223;17.182;-96.766;2023-04-09T09:36:15;26.40;47.30
44517;DHT22;30223;17.182;-96.766;2023-04-09T09:38:56;26.40;47.30
44517;DHT22;30223;17.182;-96.766;2023-04-09T09:41:23;26.30;47.20
44517;DHT22;30223;17.182;-96.766;2023-04-09T09:43:50;26.30;47.30
44517;DHT22;30223;17.182;-96.766;2023-04-09T09:46:16;26.30;47.30
44517;DHT22;30223;17.182;-96.766;2023-04-09T09:48:43;26.30;47.30
44517;DHT22;30223;17.182;-96.766;2023-04-09T09:51:12;26.30;47.40
44517;DHT22;30223;17.182;-96.766;2023-04-09T09:53:40;26.20;47.30
44517;DHT22;30223;17.182;-96.766;2023-04-09T09:56:11;26.30;47.40
44517;DHT22;30223;17.182;-96.766;2023-04-09T09:58:48;26.20;47.20
44517;DHT22;30223;17.182;-96.766;2023-04-09T10:01:16;26.10;47.20
44517;DHT22;30223;17.182;-96.766;2023-04-09T10:03:44;26.20;47.20
44517;DHT22;30223;17.182;-96.766;2023-04-09T10:06:11;26.10;47.20
44517;DHT22;30223;17.182;-96.766;2023-04-09T10:08:38;26.10;47.20
44517;DHT22;30223;17.182;-96.766;2023-04-09T10:11:06;26.10;47.30
44517;DHT22;30223;17.182;-96.766;2023-04-09T10:13:39;26.10;47.30
44517;DHT22;30223;17.182;-96.766;2023-04-09T10:16:08;26.10;47.30
44517;DHT22;30223;17.182;-96.766;2023-04-09T10:18:34;26.00;47.30
44517;DHT22;30223;17.182;-96.766;2023-04-09T10:21:04;26.00;47.20
44517;DHT22;30223;17.182;-96.766;2023-04-09T10:23:37;26.00;47.30
44517;DHT22;30223;17.182;-96.766;2023-04-09T10:26:04;26.00;47.20
44517;DHT22;30223;17.182;-96.766;2023-04-09T10:28:30;25.90;47.20
44517;DHT22;30223;17.182;-96.766;2023-04-09T10:30:57;25.90;47.20
44517;DHT22;30223;17.182;-96.766;2023-04-09T10:33:24;25.90;47.20
44517;DHT22;30223;17.182;-96.766;2023-04-09T10:35:54;25.90;47.20
44517;DHT22;30223;17.182;-96.766;2023-04-09T10:38:32;25.90;47.20
44517;DHT22;30223;17.182;-96.766;2023-04-09T10:40:59;25.90;47.20
44517;DHT22;30223;17.182;-96.766;2023-04-09T10:43:31;25.90;47.20
44517;DHT22;30223;17.182;-96.766;2023-04-09T10:45:59;25.90;47.20
44517;DHT22;30223;17.182;-96.766;2023-04-09T10:48:25;25.90;47.20
44517;DHT22;30223;17.182;-96.766;2023-04-09T10:50:51;25.90;47.20
44517;DHT22;30223;17.182;-96.766;2023-04-09T10:53:21;25.80;47.10
44517;DHT22;30223;17.182;-96.766;2023-04-09T10:55:48;25.80;47.10
44517;DHT22;30223;17.182;-96.766;2023-04-09T10:58:15;25.80;47.70
44517;DHT22;30223;17.182;-96.766;2023-04-09T11:00:42;25.80;47.00
44517;DHT22;30223;17.182;-96.766;2023-04-09T11:03:19;25.70;47.60
44517;DHT22;30223;17.182;-96.766;2023-04-09T11:05:47;25.80;47.10
44517;DHT22;30223;17.182;-96.766;2023-04-09T11:08:15;25.70;47.00
44517;DHT22;30223;17.182;-96.766;2023-04-09T11:10:42;25.70;47.00
44517;DHT22;30223;17.182;-96.766;2023-04-09T11:13:12;25.70;47.00
44517;DHT22;30223;17.182;-96.766;2023-04-09T11:15:39;25.70;47.00
44517;DHT22;30223;17.182;-96.766;2023-04-09T11:18:05;25.70;47.00
44517;DHT22;30223;17.182;-96.766;2023-04-09T11:20:32;25.70;47.00
44517;DHT22;30223;17.182;-96.766;2023-04-09T11:22:58;25.70;47.00
44517;DHT22;30223;17.182;-96.766;2023-04-09T11:25:26;25.60;46.90
44517;DHT22;30223;17.182;-96.766;2023-04-09T11:27:53;25.60;46.90
44517;DHT22;30223;17.182;-96.766;2023-04-09T11:30:19;25.60;47.00
44517;DHT22;30223;17.182;-96.766;2023-04-09T11:32:46;25.50;47.10
44517;DHT22;30223;17.182;-96.766;2023-04-09T11:35:14;25.50;47.20
44517;DHT22;30223;17.182;-96.766;2023-04-09T11:37:40;25.40;47.10
44517;DHT22;30223;17.182;-96.766;2023-04-09T11:40:23;25.40;47.20
44517;DHT22;30223;17.182;-96.766;2023-04-09T11:42:50;25.40;47.20
44517;DHT22;30223;17.182;-96.766;2023-04-09T11:45:17;25.30;47.20
44517;DHT22;30223;17.182;-96.766;2023-04-09T11:47:44;25.30;47.30
44517;DHT22;30223;17.182;-96.766;2023-04-09T11:50:11;25.30;47.30
44517;DHT22;30223;17.182;-96.766;2023-04-09T11:52:38;25.30;47.30
44517;DHT22;30223;17.182;-96.766;2023-04-09T11:55:06;25.20;47.30
44517;DHT22;30223;17.182;-96.766;2023-04-09T11:57:45;25.20;47.40
44517;DHT22;30223;17.182;-96.766;2023-04-09T12:00:12;25.20;47.30
44517;DHT22;30223;17.182;-96.766;2023-04-09T12:02:43;25.20;47.40
44517;DHT22;30223;17.182;-96.766;2023-04-09T12:05:28;25.10;47.30
44517;DHT22;30223;17.182;-96.766;2023-04-09T12:07:59;25.10;48.00
44517;DHT22;30223;17.182;-96.766;2023-04-09T12:10:26;25.10;47.40
44517;DHT22;30223;17.182;-96.766;2023-04-09T12:12:53;25.10;47.40
44517;DHT22;30223;17.182;-96.766;2023-04-09T12:15:23;25.10;47.40
44517;DHT22;30223;17.182;-96.766;2023-04-09T12:17:53;25.10;47.40
44517;DHT22;30223;17.182;-96.766;2023-04-09T12:20:30;25.00;47.40
44517;DHT22;30223;17.182;-96.766;2023-04-09T12:22:57;25.00;47.40
44517;DHT22;30223;17.182;-96.766;2023-04-09T12:25:25;25.00;47.40
44517;DHT22;30223;17.182;-96.766;2023-04-09T12:27:51;25.00;47.40
44517;DHT22;30223;17.182;-96.766;2023-04-09T12:30:17;24.90;47.40
44517;DHT22;30223;17.182;-96.766;2023-04-09T12:32:44;25.00;47.50
44517;DHT22;30223;17.182;-96.766;2023-04-09T12:35:10;24.90;47.40
44517;DHT22;30223;17.182;-96.766;2023-04-09T12:37:37;24.90;47.40
44517;DHT22;30223;17.182;-96.766;2023-04-09T12:40:03;24.90;47.40
44517;DHT22;30223;17.182;-96.766;2023-04-09T12:42:29;24.90;47.50
44517;DHT22;30223;17.182;-96.766;2023-04-09T12:44:55;24.80;47.40
44517;DHT22;30223;17.182;-96.766;2023-04-09T12:47:22;24.80;47.50
44517;DHT22;30223;17.182;-96.766;2023-04-09T12:49:48;24.80;47.50
44517;DHT22;30223;17.182;-96.766;2023-04-09T12:52:15;24.80;47.50
44517;DHT22;30223;17.182;-96.766;2023-04-09T12:54:43;24.80;47.50
44517;DHT22;30223;17.182;-96.766;2023-04-09T12:57:09;24.80;47.50
44517;DHT22;30223;17.182;-96.766;2023-04-09T12:59:35;24.80;47.50
44517;DHT22;30223;17.182;-96.766;2023-04-09T13:02:01;24.70;47.30
44517;DHT22;30223;17.182;-96.766;2023-04-09T13:04:28;24.70;47.30
44517;DHT22;30223;17.182;-96.766;2023-04-09T13:06:54;24.70;47.30
44517;DHT22;30223;17.182;-96.766;2023-04-09T13:09:20;24.60;47.40
44517;DHT22;30223;17.182;-96.766;2023-04-09T13:11:46;24.70;47.50
44517;DHT22;30223;17.182;-96.766;2023-04-09T13:14:12;24.60;47.50
44517;DHT22;30223;17.182;-96.766;2023-04-09T13:16:39;24.60;47.60
44517;DHT22;30223;17.182;-96.766;2023-04-09T13:19:06;24.60;47.70
44517;DHT22;30223;17.182;-96.766;2023-04-09T13:21:33;24.60;47.80
44517;DHT22;30223;17.182;-96.766;2023-04-09T13:23:59;24.60;47.90
44517;DHT22;30223;17.182;-96.766;2023-04-09T13:26:25;24.60;48.00
44517;DHT22;30223;17.182;-96.766;2023-04-09T13:28:51;24.60;48.10
44517;DHT22;30223;17.182;-96.766;2023-04-09T13:31:18;24.60;48.10
44517;DHT22;30223;17.182;-96.766;2023-04-09T13:33:44;24.60;48.50
44517;DHT22;30223;17.182;-96.766;2023-04-09T13:36:10;24.60;48.50
44517;DHT22;30223;17.182;-96.766;2023-04-09T13:38:37;24.60;48.40
44517;DHT22;30223;17.182;-96.766;2023-04-09T13:41:04;24.60;48.50
44517;DHT22;30223;17.182;-96.766;2023-04-09T13:43:30;24.60;48.40
44517;DHT22;30223;17.182;-96.766;2023-04-09T13:45:56;24.60;48.40
44517;DHT22;30223;17.182;-96.766;2023-04-09T13:48:23;24.60;48.40
44517;DHT22;30223;17.182;-96.766;2023-04-09T13:50:49;24.50;48.40
44517;DHT22;30223;17.182;-96.766;2023-04-09T13:53:16;24.60;48.70
44517;DHT22;30223;17.182;-96.766;2023-04-09T13:55:42;24.60;48.80
44517;DHT22;30223;17.182;-96.766;2023-04-09T13:58:08;24.60;48.80
44517;DHT22;30223;17.182;-96.766;2023-04-09T14:00:35;24.60;48.80
44517;DHT22;30223;17.182;-96.766;2023-04-09T14:03:01;24.50;48.80
44517;DHT22;30223;17.182;-96.766;2023-04-09T14:05:28;24.60;49.10
44517;DHT22;30223;17.182;-96.766;2023-04-09T14:07:54;24.60;49.60
44517;DHT22;30223;17.182;-96.766;2023-04-09T14:10:20;24.60;49.50
44517;DHT22;30223;17.182;-96.766;2023-04-09T14:12:47;24.60;49.30
44517;DHT22;30223;17.182;-96.766;2023-04-09T14:15:14;24.60;49.40
44517;DHT22;30223;17.182;-96.766;2023-04-09T14:17:41;24.60;49.30
44517;DHT22;30223;17.182;-96.766;2023-04-09T14:20:08;24.60;49.20
44517;DHT22;30223;17.182;-96.766;2023-04-09T14:22:34;24.50;49.90
44517;DHT22;30223;17.182;-96.766;2023-04-09T14:25:00;24.50;50.30
44517;DHT22;30223;17.182;-96.766;2023-04-09T14:27:26;24.50;50.10
44517;DHT22;30223;17.182;-96.766;2023-04-09T14:29:52;24.50;50.40
44517;DHT22;30223;17.182;-96.766;2023-04-09T14:32:19;24.50;50.50
44517;DHT22;30223;17.182;-96.766;2023-04-09T14:34:45;24.50;50.40
44517;DHT22;30223;17.182;-96.766;2023-04-09T14:37:11;24.50;50.90
44517;DHT22;30223;17.182;-96.766;2023-04-09T14:39:37;24.50;51.00
44517;DHT22;30223;17.182;-96.766;2023-04-09T14:42:03;24.50;50.50
44517;DHT22;30223;17.182;-96.766;2023-04-09T14:44:29;24.50;50.50
44517;DHT22;30223;17.182;-96.766;2023-04-09T14:46:56;24.60;50.40
44517;DHT22;30223;17.182;-96.766;2023-04-09T14:49:24;24.60;50.80
44517;DHT22;30223;17.182;-96.766;2023-04-09T14:51:50;24.60;50.90
44517;DHT22;30223;17.182;-96.766;2023-04-09T14:54:17;24.60;50.90
44517;DHT22;30223;17.182;-96.766;2023-04-09T14:56:43;24.60;50.80
44517;DHT22;30223;17.182;-96.766;2023-04-09T14:59:09;24.60;50.80
44517;DHT22;30223;17.182;-96.766;2023-04-09T15:01:35;24.60;51.00
44517;DHT22;30223;17.182;-96.766;2023-04-09T15:04:01;24.60;51.40
44517;DHT22;30223;17.182;-96.766;2023-04-09T15:06:28;24.70;51.30
44517;DHT22;30223;17.182;-96.766;2023-04-09T15:08:54;24.70;51.50
44517;DHT22;30223;17.182;-96.766;2023-04-09T15:11:20;24.80;51.80